createdAt,value
2022-09-26T00:01:15.760Z,68.72
2022-09-26T00:03:44.648Z,68.81
2022-09-26T00:06:11.323Z,69.22
2022-09-26T00:08:39.480Z,70.01
2022-09-26T00:11:08.654Z,69.30
2022-09-26T00:13:38.698Z,69.08
2022-09-26T00:16:06.439Z,69.02
2022-09-26T00:18:34.194Z,69.90
2022-09-26T00:21:09.051Z,69.40
2022-09-26T00:23:36.430Z,69.63
2022-09-26T00:26:04.364Z,70.71
2022-09-26T00:28:31.806Z,71.40
2022-09-26T00:31:07.580Z,71.63
2022-09-26T00:33:37.614Z,73.78
2022-09-26T00:36:05.296Z,74.35
2022-09-26T00:38:32.350Z,75.55
2022-09-26T00:41:00.003Z,76.61
2022-09-26T00:43:32.531Z,75.67
2022-09-26T00:46:13.347Z,72.89
2022-09-26T00:48:43.200Z,73.00
2022-09-26T00:51:11.691Z,72.92
2022-09-26T00:53:43.837Z,71.89
2022-09-26T00:56:26.364Z,70.37
2022-09-26T00:59:12.080Z,73.51
2022-09-26T01:01:39.037Z,75.00
2022-09-26T01:04:08.028Z,73.47
2022-09-26T01:06:35.752Z,70.98
2022-09-26T01:09:06.075Z,72.46
2022-09-26T01:11:37.475Z,73.90
2022-09-26T01:14:07.496Z,74.08
2022-09-26T01:16:35.228Z,72.16
2022-09-26T01:19:17.436Z,70.35
2022-09-26T01:22:02.424Z,68.99
2022-09-26T01:24:50.390Z,67.80
2022-09-26T01:27:33.434Z,67.84
2022-09-26T01:30:16.618Z,68.14
2022-09-26T01:33:10.384Z,67.76
2022-09-26T01:35:45.962Z,68.34
2022-09-26T01:38:24.867Z,68.46
2022-09-26T01:41:29.271Z,68.87
2022-09-26T01:44:27.028Z,69.95
2022-09-26T01:47:02.938Z,72.59
2022-09-26T01:49:54.228Z,75.71
2022-09-26T01:52:37.977Z,73.63
2022-09-26T01:55:41.182Z,73.91
2022-09-26T01:58:12.018Z,75.56
2022-09-26T02:00:43.129Z,74.19
2022-09-26T02:03:15.623Z,73.63
2022-09-26T02:05:54.130Z,76.05
2022-09-26T02:08:30.234Z,77.14
2022-09-26T02:11:09.197Z,77.64
2022-09-26T02:14:00.262Z,78.10
2022-09-26T02:16:41.773Z,77.50
2022-09-26T02:19:32.542Z,76.60
2022-09-26T02:22:01.450Z,74.17
2022-09-26T02:24:29.369Z,72.18
2022-09-26T02:26:56.559Z,73.95
2022-09-26T02:29:23.296Z,73.10
2022-09-26T02:32:05.526Z,72.00
2022-09-26T02:34:33.159Z,70.82
2022-09-26T02:37:00.065Z,68.83
2022-09-26T02:39:26.775Z,68.06
2022-09-26T02:42:08.337Z,68.27
2022-09-26T02:45:16.552Z,69.30
2022-09-26T02:48:02.398Z,72.88
2022-09-26T02:50:59.962Z,71.39
2022-09-26T02:53:47.491Z,71.62
2022-09-26T02:56:51.470Z,70.93
2022-09-26T02:59:32.821Z,71.32
2022-09-26T03:02:04.980Z,71.26
2022-09-26T03:04:40.156Z,70.09
2022-09-26T03:07:14.599Z,71.14
2022-09-26T03:09:43.382Z,74.00
2022-09-26T03:12:11.353Z,71.52
2022-09-26T03:14:41.642Z,73.55
2022-09-26T03:17:10.129Z,75.78
2022-09-26T03:19:47.003Z,73.41
2022-09-26T03:22:16.072Z,71.32
2022-09-26T03:24:44.716Z,70.21
2022-09-26T03:27:14.187Z,68.98
2022-09-26T03:29:40.986Z,67.94
2022-09-26T03:32:07.668Z,68.19
2022-09-26T03:34:34.287Z,68.29
2022-09-26T03:37:00.937Z,68.06
2022-09-26T03:39:27.522Z,67.34
2022-09-26T03:41:54.099Z,67.46
2022-09-26T03:44:20.748Z,66.99
2022-09-26T03:46:47.373Z,66.98
2022-09-26T03:49:14.115Z,69.30
2022-09-26T03:51:40.896Z,71.67
2022-09-26T03:54:07.483Z,69.72
2022-09-26T03:56:34.081Z,69.48
2022-09-26T03:59:00.679Z,70.00
2022-09-26T04:01:27.306Z,68.80
2022-09-26T04:03:54.080Z,68.79
2022-09-26T04:06:21.471Z,68.75
2022-09-26T04:08:52.258Z,71.83
2022-09-26T04:11:21.737Z,69.20
2022-09-26T04:13:52.423Z,69.29
2022-09-26T04:16:20.742Z,70.25
2022-09-26T04:18:47.752Z,71.22
2022-09-26T04:21:14.929Z,73.99
2022-09-26T04:23:43.259Z,72.62
2022-09-26T04:26:14.869Z,73.95
2022-09-26T04:28:43.093Z,75.59
2022-09-26T04:31:11.394Z,76.52
2022-09-26T04:33:39.076Z,76.40
2022-09-26T04:36:08.754Z,76.93
2022-09-26T04:38:35.418Z,78.07
2022-09-26T04:41:11.242Z,77.76
2022-09-26T04:43:38.866Z,76.85
2022-09-26T04:46:20.609Z,76.42
2022-09-26T04:48:51.990Z,75.58
2022-09-26T04:51:21.488Z,75.35
2022-09-26T04:53:48.920Z,74.71
2022-09-26T04:56:16.880Z,74.43
2022-09-26T04:58:44.739Z,74.84
2022-09-26T05:01:17.671Z,74.43
2022-09-26T05:03:44.345Z,75.27
2022-09-26T05:06:12.596Z,76.93
2022-09-26T05:08:41.281Z,74.58
2022-09-26T05:11:09.492Z,73.71
2022-09-26T05:13:36.789Z,73.88
2022-09-26T05:16:03.825Z,74.69
2022-09-26T05:18:30.452Z,75.43
2022-09-26T05:20:57.607Z,74.55
2022-09-26T05:23:26.144Z,73.12
2022-09-26T05:25:52.749Z,75.25
2022-09-26T05:28:19.448Z,73.71
2022-09-26T05:30:46.060Z,73.85
2022-09-26T05:33:12.639Z,72.14
2022-09-26T05:35:40.318Z,70.81
2022-09-26T05:38:06.975Z,70.09
2022-09-26T05:40:33.773Z,71.37
2022-09-26T05:43:03.774Z,70.74
2022-09-26T05:45:30.360Z,70.43
2022-09-26T05:47:57.502Z,70.33
2022-09-26T05:50:24.223Z,75.31
2022-09-26T05:52:51.413Z,77.96
2022-09-26T05:55:18.005Z,78.30
2022-09-26T05:57:55.584Z,77.42
2022-09-26T06:00:22.217Z,78.11
2022-09-26T06:02:57.748Z,78.22
2022-09-26T06:05:25.233Z,78.64
2022-09-26T06:07:52.654Z,78.36
2022-09-26T06:10:22.262Z,78.57
2022-09-26T06:12:50.958Z,78.47
2022-09-26T06:15:17.878Z,77.25
2022-09-26T06:17:44.853Z,77.68
2022-09-26T06:20:11.426Z,75.37
2022-09-26T06:22:42.204Z,76.82
2022-09-26T06:25:10.283Z,76.01
2022-09-26T06:27:37.795Z,76.51
2022-09-26T06:30:09.166Z,74.70
2022-09-26T06:32:35.956Z,77.01
2022-09-26T06:35:02.614Z,74.74
2022-09-26T06:37:29.191Z,74.05
2022-09-26T06:39:59.243Z,73.78
2022-09-26T06:42:26.603Z,74.67
2022-09-26T06:44:53.200Z,74.63
2022-09-26T06:47:19.788Z,75.55
2022-09-26T06:49:46.382Z,76.56
2022-09-26T06:52:12.983Z,76.85
2022-09-26T06:54:39.560Z,77.11
2022-09-26T06:57:06.171Z,75.05
2022-09-26T06:59:32.788Z,75.98
2022-09-26T07:01:59.498Z,73.91
2022-09-26T07:04:26.185Z,72.74
2022-09-26T07:06:53.172Z,73.26
2022-09-26T07:09:19.934Z,71.02
2022-09-26T07:12:13.086Z,71.34
2022-09-26T07:14:33.999Z,72.03
2022-09-26T07:17:00.921Z,73.76
2022-09-26T07:19:27.787Z,74.03
2022-09-26T07:21:54.863Z,72.03
2022-09-26T07:24:21.568Z,71.65
2022-09-26T07:26:48.209Z,70.95
2022-09-26T07:29:14.976Z,68.87
2022-09-26T07:31:41.716Z,68.33
2022-09-26T07:34:08.397Z,68.71
2022-09-26T07:36:34.991Z,67.17
2022-09-26T07:39:01.577Z,66.07
2022-09-26T07:41:28.171Z,67.42
2022-09-26T07:46:41.468Z,69.41
2022-09-26T07:49:08.420Z,70.60
2022-09-26T07:51:35.097Z,69.77
2022-09-26T07:54:01.683Z,70.40
2022-09-26T07:56:28.341Z,72.05
2022-09-26T07:58:54.943Z,70.47
2022-09-26T08:01:21.691Z,68.33
2022-09-26T08:03:49.445Z,70.42
2022-09-26T08:06:16.244Z,69.42
2022-09-26T08:08:42.882Z,69.63
2022-09-26T08:11:15.341Z,69.55
2022-09-26T08:13:42.240Z,69.44
2022-09-26T08:16:09.757Z,67.79
2022-09-26T08:18:36.702Z,65.91
2022-09-26T08:21:07.178Z,67.30
2022-09-26T08:23:34.221Z,68.30
2022-09-26T08:26:05.246Z,67.98
2022-09-26T08:28:31.873Z,67.87
2022-09-26T08:31:00.029Z,67.49
2022-09-26T08:33:27.183Z,67.25
2022-09-26T08:35:53.905Z,68.45
2022-09-26T08:38:20.619Z,68.28
2022-09-26T08:40:54.531Z,66.37
2022-09-26T08:43:40.112Z,67.89
2022-09-26T08:46:31.362Z,67.72
2022-09-26T08:49:15.567Z,66.34
2022-09-26T08:51:48.828Z,65.76
2022-09-26T08:54:33.616Z,65.17
2022-09-26T08:57:16.115Z,65.12
2022-09-26T08:59:46.091Z,64.31
2022-09-26T09:02:31.850Z,65.79
2022-09-26T09:05:03.519Z,66.02
2022-09-26T09:07:30.221Z,68.27
2022-09-26T09:10:05.447Z,67.19
2022-09-26T09:12:59.531Z,66.40
2022-09-26T09:15:38.496Z,64.27
2022-09-26T09:18:20.335Z,63.13
2022-09-26T09:21:13.705Z,64.87
2022-09-26T09:24:01.394Z,65.80
2022-09-26T09:29:49.335Z,65.32
2022-09-26T09:32:23.631Z,62.85
2022-09-26T09:34:53.959Z,62.30
2022-09-26T09:37:43.581Z,62.74
2022-09-26T09:40:52.770Z,62.55
2022-09-26T09:43:30.028Z,61.17
2022-09-26T09:46:05.421Z,61.71
2022-09-26T09:48:32.997Z,62.22
2022-09-26T09:51:10.304Z,60.53
2022-09-26T09:53:49.794Z,60.29
2022-09-26T09:56:31.325Z,62.48
2022-09-26T09:59:10.182Z,61.08
2022-09-26T10:01:42.470Z,61.00
2022-09-26T10:04:40.042Z,61.26
2022-09-26T10:07:06.690Z,61.08
2022-09-26T10:09:40.808Z,62.22
2022-09-26T10:12:16.693Z,60.37
2022-09-26T10:14:50.245Z,60.08
2022-09-26T10:17:19.224Z,59.02
2022-09-26T10:19:46.355Z,59.79
2022-09-26T10:22:41.224Z,59.97
2022-09-26T10:25:20.255Z,62.60
2022-09-26T10:27:54.269Z,61.69
2022-09-26T10:30:22.598Z,60.01
2022-09-26T10:32:56.573Z,61.92
2022-09-26T10:35:25.170Z,59.08
2022-09-26T10:37:59.730Z,61.24
2022-09-26T10:40:37.622Z,60.14
2022-09-26T10:43:24.529Z,59.72
2022-09-26T10:45:56.065Z,62.29
2022-09-26T10:48:53.239Z,61.82
2022-09-26T10:51:37.000Z,62.33
2022-09-26T10:54:17.923Z,64.88
2022-09-26T10:56:50.656Z,63.30
2022-09-26T10:59:23.504Z,61.93
2022-09-26T11:01:54.926Z,62.26
2022-09-26T11:04:27.196Z,61.92
2022-09-26T11:06:53.939Z,61.13
2022-09-26T11:09:20.935Z,60.85
2022-09-26T11:11:47.577Z,58.87
2022-09-26T11:14:28.109Z,61.10
2022-09-26T11:16:56.693Z,61.44
2022-09-26T11:19:54.905Z,61.63
2022-09-26T11:22:34.124Z,58.32
2022-09-26T11:25:28.065Z,59.69
2022-09-26T11:28:00.670Z,58.45
2022-09-26T11:30:32.555Z,58.07
2022-09-26T11:33:00.512Z,56.02
2022-09-26T11:35:33.187Z,54.92
2022-09-26T11:38:02.199Z,55.19
2022-09-26T11:41:21.674Z,53.74
2022-09-26T11:44:04.109Z,55.45
2022-09-26T11:47:00.830Z,54.03
2022-09-26T11:49:53.119Z,51.03
2022-09-26T11:52:35.298Z,54.18
2022-09-26T11:55:32.991Z,54.08
2022-09-26T11:58:04.333Z,51.09
2022-09-26T12:00:41.924Z,54.42
2022-09-26T12:03:46.154Z,53.08
2022-09-26T12:06:31.124Z,51.54
2022-09-26T12:09:10.282Z,51.51
2022-09-26T12:11:55.716Z,49.10
2022-09-26T12:14:37.408Z,49.25
2022-09-26T12:17:49.720Z,48.96
2022-09-26T12:20:33.255Z,49.57
2022-09-26T12:23:07.042Z,49.63
2022-09-26T12:25:53.976Z,48.04
2022-09-26T12:28:29.789Z,47.50
2022-09-26T12:31:20.037Z,49.60
2022-09-26T12:34:19.601Z,52.25
2022-09-26T12:37:13.428Z,50.03
2022-09-26T12:40:15.396Z,52.93
2022-09-26T12:43:06.042Z,52.63
2022-09-26T12:45:56.472Z,52.56
2022-09-26T12:48:50.044Z,49.27
2022-09-26T12:51:38.038Z,48.95
2022-09-26T12:54:28.018Z,50.15
2022-09-26T12:57:00.902Z,51.32
2022-09-26T12:59:52.667Z,51.75
2022-09-26T13:02:37.989Z,50.72
2022-09-26T13:05:13.527Z,50.94
2022-09-26T13:08:17.510Z,52.24
2022-09-26T13:11:11.775Z,52.25
2022-09-26T13:14:06.585Z,52.39
2022-09-26T13:16:55.757Z,52.14
2022-09-26T13:19:34.105Z,52.45
2022-09-26T13:22:03.976Z,50.49
2022-09-26T13:25:05.362Z,50.97
2022-09-26T13:27:40.246Z,50.29
2022-09-26T13:30:12.666Z,49.97
2022-09-26T13:32:55.909Z,51.10
2022-09-26T13:35:29.323Z,51.12
2022-09-26T13:38:25.616Z,48.01
2022-09-26T13:41:04.444Z,49.16
2022-09-26T13:43:39.864Z,48.28
2022-09-26T13:46:25.159Z,46.62
2022-09-26T13:49:15.910Z,45.34
2022-09-26T13:52:00.484Z,45.43
2022-09-26T13:54:58.416Z,44.26
2022-09-26T13:57:49.053Z,45.30
2022-09-26T14:00:18.642Z,45.29
2022-09-26T14:03:24.398Z,45.79
2022-09-26T14:06:06.367Z,47.10
2022-09-26T14:08:35.218Z,46.88
2022-09-26T14:11:12.322Z,47.51
2022-09-26T14:13:38.907Z,48.37
2022-09-26T14:16:28.168Z,47.28
2022-09-26T14:19:09.800Z,48.28
2022-09-26T14:21:40.355Z,47.51
2022-09-26T14:24:34.162Z,47.92
2022-09-26T14:27:09.858Z,47.90
2022-09-26T14:29:49.077Z,47.33
2022-09-26T14:32:21.307Z,48.89
2022-09-26T14:34:54.066Z,48.93
2022-09-26T14:37:23.532Z,48.90
2022-09-26T14:40:35.263Z,48.25
2022-09-26T14:43:13.432Z,48.20
2022-09-26T14:45:40.010Z,47.28
2022-09-26T14:48:15.646Z,47.59
2022-09-26T14:50:49.591Z,47.08
2022-09-26T14:53:35.083Z,47.25
2022-09-26T14:56:03.326Z,47.52
2022-09-26T14:58:32.924Z,48.56
2022-09-26T15:01:05.202Z,48.17
2022-09-26T15:03:34.459Z,48.22
2022-09-26T15:06:05.427Z,46.79
2022-09-26T15:08:39.032Z,47.33
2022-09-26T15:11:10.197Z,46.85
2022-09-26T15:13:45.666Z,46.90
2022-09-26T15:16:33.662Z,48.05
2022-09-26T15:19:23.097Z,49.92
2022-09-26T15:22:10.234Z,48.81
2022-09-26T15:24:36.930Z,47.53
2022-09-26T15:27:21.054Z,48.70
2022-09-26T15:29:54.454Z,49.29
2022-09-26T15:32:27.048Z,50.30
2022-09-26T15:34:54.616Z,51.64
2022-09-26T15:37:31.069Z,50.54
2022-09-26T15:40:13.508Z,49.33
2022-09-26T15:42:40.205Z,49.64
2022-09-26T15:45:24.022Z,50.29
2022-09-26T15:47:50.869Z,49.94
2022-09-26T15:50:37.846Z,51.44
2022-09-26T15:53:17.588Z,50.91
2022-09-26T15:56:06.386Z,51.33
2022-09-26T15:58:53.767Z,51.08
2022-09-26T16:01:24.923Z,50.31
2022-09-26T16:04:05.333Z,51.36
2022-09-26T16:06:36.260Z,52.20
2022-09-26T16:09:25.196Z,51.84
2022-09-26T16:12:15.117Z,52.04
2022-09-26T16:14:58.772Z,52.81
2022-09-26T16:17:33.397Z,51.79
2022-09-26T16:20:17.953Z,52.38
2022-09-26T16:22:51.779Z,53.27
2022-09-26T16:25:18.329Z,52.43
2022-09-26T16:27:51.961Z,50.86
2022-09-26T16:30:21.210Z,51.22
2022-09-26T16:32:47.861Z,52.35
2022-09-26T16:35:19.096Z,52.96
2022-09-26T16:38:24.882Z,53.46
2022-09-26T16:40:54.905Z,53.86
2022-09-26T16:43:30.306Z,54.35
2022-09-26T16:46:16.381Z,54.44
2022-09-26T16:48:52.359Z,54.12
2022-09-26T16:51:23.606Z,53.81
2022-09-26T16:53:59.309Z,53.89
2022-09-26T16:56:27.842Z,54.90
2022-09-26T16:58:58.674Z,55.06
2022-09-26T17:01:25.842Z,55.14
2022-09-26T17:03:52.575Z,54.65
2022-09-26T17:06:19.199Z,54.24
2022-09-26T17:08:45.800Z,54.46
2022-09-26T17:11:15.928Z,54.86
2022-09-26T17:13:42.600Z,54.95
2022-09-26T17:16:10.298Z,55.70
2022-09-26T17:18:37.542Z,55.28
2022-09-26T17:21:04.249Z,54.39
2022-09-26T17:23:40.433Z,55.61
2022-09-26T17:26:08.380Z,54.36
2022-09-26T17:28:41.504Z,54.36
2022-09-26T17:31:16.400Z,54.73
2022-09-26T17:33:43.091Z,54.42
2022-09-26T17:36:22.577Z,54.01
2022-09-26T17:38:49.290Z,53.91
2022-09-26T17:41:15.953Z,54.32
2022-09-26T17:43:42.730Z,54.12
2022-09-26T17:46:16.030Z,53.96
2022-09-26T17:48:44.357Z,54.27
2022-09-26T17:51:11.361Z,54.74
2022-09-26T17:53:49.794Z,54.38
2022-09-26T17:56:17.750Z,54.30
2022-09-26T17:58:45.898Z,54.38
2022-09-26T18:01:38.988Z,54.17
2022-09-26T18:04:06.908Z,53.75
2022-09-26T18:06:34.534Z,54.30
2022-09-26T18:09:03.308Z,53.74
2022-09-26T18:11:29.973Z,53.70
2022-09-26T18:13:56.689Z,53.66
2022-09-26T18:16:24.421Z,54.46
2022-09-26T18:18:51.652Z,53.61
2022-09-26T18:21:18.944Z,54.35
2022-09-26T18:23:59.937Z,53.87
2022-09-26T18:26:46.723Z,53.52
2022-09-26T18:29:22.826Z,55.21
2022-09-26T18:31:49.587Z,55.13
2022-09-26T18:34:17.168Z,56.96
2022-09-26T18:36:44.051Z,56.06
2022-09-26T18:39:10.649Z,56.78
2022-09-26T18:41:39.750Z,57.45
2022-09-26T18:44:12.985Z,58.25
2022-09-26T18:46:40.009Z,57.76
2022-09-26T18:49:13.273Z,58.32
2022-09-26T18:51:40.326Z,59.59
2022-09-26T18:54:13.577Z,60.60
2022-09-26T18:56:41.131Z,61.03
2022-09-26T18:59:07.753Z,61.01
2022-09-26T19:01:44.967Z,61.17
2022-09-26T19:04:20.920Z,61.38
2022-09-26T19:06:54.150Z,59.88
2022-09-26T19:09:22.272Z,59.41
2022-09-26T19:11:49.013Z,59.81
2022-09-26T19:14:27.777Z,59.89
2022-09-26T19:16:55.165Z,59.53
2022-09-26T19:19:28.066Z,60.64
2022-09-26T19:22:00.761Z,59.69
2022-09-26T19:24:45.841Z,59.86
2022-09-26T19:27:20.269Z,62.04
2022-09-26T19:30:07.183Z,62.64
2022-09-26T19:32:38.559Z,62.53
2022-09-26T19:35:16.335Z,64.06
2022-09-26T19:37:42.936Z,63.21
2022-09-26T19:40:13.942Z,63.08
2022-09-26T19:42:40.742Z,64.14
2022-09-26T19:45:11.715Z,63.07
2022-09-26T19:47:44.664Z,62.63
2022-09-26T19:50:18.755Z,63.79
2022-09-26T19:52:46.893Z,64.49
2022-09-26T19:55:22.525Z,66.02
2022-09-26T19:57:49.879Z,67.59
2022-09-26T20:00:16.802Z,69.26
2022-09-26T20:02:43.568Z,68.31
2022-09-26T20:05:22.646Z,69.40
2022-09-26T20:07:50.139Z,69.17
2022-09-26T20:10:22.215Z,71.18
2022-09-26T20:12:48.847Z,71.02
2022-09-26T20:15:17.979Z,71.42
2022-09-26T20:17:46.403Z,71.59
2022-09-26T20:20:23.283Z,70.44
2022-09-26T20:22:51.558Z,69.91
2022-09-26T20:25:36.890Z,68.39
2022-09-26T20:28:05.698Z,68.63
2022-09-26T20:30:32.387Z,68.63
2022-09-26T20:32:59.360Z,67.22
2022-09-26T20:35:35.620Z,67.16
2022-09-26T20:38:14.912Z,68.96
2022-09-26T20:40:41.969Z,69.45
2022-09-26T20:43:18.339Z,68.83
2022-09-26T20:45:45.027Z,68.96
2022-09-26T20:48:22.395Z,69.40
2022-09-26T20:50:50.325Z,69.61
2022-09-26T20:53:24.061Z,67.66
2022-09-26T20:55:51.716Z,68.21
2022-09-26T20:58:21.761Z,68.21
2022-09-26T21:00:48.942Z,67.03
2022-09-26T21:03:18.729Z,68.02
2022-09-26T21:05:46.059Z,67.59
2022-09-26T21:08:27.607Z,68.24
2022-09-26T21:10:55.632Z,67.86
2022-09-26T21:13:23.109Z,67.65
2022-09-26T21:15:51.449Z,67.13
2022-09-26T21:18:28.330Z,69.90
2022-09-26T21:21:06.657Z,69.47
2022-09-26T21:23:43.769Z,69.17
2022-09-26T21:26:29.476Z,72.69
2022-09-26T21:28:57.344Z,73.58
2022-09-26T21:31:30.625Z,72.82
2022-09-26T21:33:59.855Z,73.29
2022-09-26T21:36:39.698Z,72.67
2022-09-26T21:39:06.312Z,71.39
2022-09-26T21:41:33.430Z,71.12
2022-09-26T21:44:13.065Z,72.25
2022-09-26T21:46:39.724Z,72.57
2022-09-26T21:49:06.378Z,71.32
2022-09-26T21:51:35.440Z,73.18
2022-09-26T21:54:09.622Z,72.82
2022-09-26T21:56:48.372Z,73.68
2022-09-26T21:59:21.555Z,72.82
2022-09-26T22:01:48.234Z,74.94
2022-09-26T22:04:14.908Z,75.57
2022-09-26T22:06:42.368Z,75.62
2022-09-26T22:09:09.406Z,76.04
2022-09-26T22:11:37.166Z,75.78
2022-09-26T22:14:04.772Z,74.98
2022-09-26T22:16:31.449Z,74.61
2022-09-26T22:18:59.474Z,75.01
2022-09-26T22:21:26.424Z,73.48
2022-09-26T22:23:53.084Z,73.36
2022-09-26T22:26:20.213Z,73.18
2022-09-26T22:28:46.913Z,74.09
2022-09-26T22:31:13.623Z,74.97
2022-09-26T22:33:40.330Z,74.26
2022-09-26T22:36:07.724Z,72.35
2022-09-26T22:38:35.937Z,73.78
2022-09-26T22:41:05.450Z,74.50
2022-09-26T22:43:33.574Z,75.03
2022-09-26T22:46:02.495Z,74.95
2022-09-26T22:48:30.891Z,77.10
2022-09-26T22:50:57.530Z,77.12
2022-09-26T22:53:25.358Z,77.15
2022-09-26T22:55:56.580Z,76.38
2022-09-26T22:58:24.726Z,78.06
2022-09-26T23:00:51.771Z,77.63
2022-09-26T23:03:18.462Z,77.04
2022-09-26T23:05:47.404Z,76.84
2022-09-26T23:08:14.020Z,76.71
2022-09-26T23:10:49.595Z,75.75
2022-09-26T23:13:17.682Z,74.82
2022-09-26T23:15:45.112Z,75.50
2022-09-26T23:18:14.011Z,74.79
2022-09-26T23:20:41.501Z,75.29
2022-09-26T23:23:09.730Z,75.23
2022-09-26T23:25:44.040Z,75.69
2022-09-26T23:28:10.640Z,76.57
2022-09-26T23:30:38.155Z,74.60
2022-09-26T23:33:04.844Z,74.38
2022-09-26T23:35:31.458Z,74.57
2022-09-26T23:37:58.093Z,73.90
2022-09-26T23:40:25.154Z,75.24
2022-09-26T23:42:51.778Z,74.93
2022-09-26T23:45:18.381Z,76.10
2022-09-26T23:47:44.980Z,76.01
2022-09-26T23:50:11.578Z,77.50
2022-09-26T23:52:38.164Z,78.52
2022-09-26T23:55:05.161Z,77.83
2022-09-26T23:57:31.818Z,78.20
2022-09-26T23:59:58.460Z,78.13
